Time,TemperatureF,DewpointF,PressureIn,WindDirection,WindDirectionDegrees,WindSpeedMPH,WindSpeedGustMPH,Humidity,HourlyPrecipIn,Conditions,Clouds,dailyrainin,SoftwareType,DateUTC
2013-04-22 00:14:00,55.9,52.1,29.98,SW,225,0.0,-999.0,87,-99.99,,,0.00,Acu-Link.com,2013-04-22 07:14:00,
2013-04-22 00:29:00,55.9,52.1,29.98,SW,225,2.2,-999.0,87,-99.99,,,0.00,Acu-Link.com,2013-04-22 07:29:00,
2013-04-22 00:45:00,55.6,52.1,29.98,SW,225,1.7,-999.0,88,-99.99,,,0.00,Acu-Link.com,2013-04-22 07:45:00,
2013-04-22 01:00:00,55.6,52.1,29.98,SW,225,0.0,-999.0,88,-99.99,,,0.00,Acu-Link.com,2013-04-22 08:00:00,
2013-04-22 01:15:00,55.4,51.9,29.99,SW,225,1.7,-999.0,88,-99.99,,,0.00,Acu-Link.com,2013-04-22 08:15:00,
2013-04-22 01:30:00,55.4,51.9,29.98,SW,225,1.7,-999.0,88,-99.99,,,0.00,Acu-Link.com,2013-04-22 08:30:00,
2013-04-22 01:45:00,55.6,52.4,29.98,SW,225,0.0,-999.0,89,-99.99,,,0.00,Acu-Link.com,2013-04-22 08:45:00,
2013-04-22 02:01:00,55.4,52.2,29.98,SW,225,1.1,-999.0,89,-99.99,,,0.00,Acu-Link.com,2013-04-22 09:01:00,
2013-04-22 02:16:00,55.6,52.4,29.98,SW,225,2.2,-999.0,89,-99.99,,,0.00,Acu-Link.com,2013-04-22 09:16:00,
2013-04-22 02:31:00,55.6,52.4,29.97,SW,225,0.0,-999.0,89,-99.99,,,0.00,Acu-Link.com,2013-04-22 09:31:00,
2013-04-22 02:46:00,55.6,52.4,29.97,SW,225,0.0,-999.0,89,-99.99,,,0.00,Acu-Link.com,2013-04-22 09:46:00,
2013-04-22 03:02:00,55.6,52.4,29.97,SW,225,0.0,-999.0,89,-99.99,,,0.00,Acu-Link.com,2013-04-22 10:02:00,
2013-04-22 03:17:00,55.8,52.6,29.96,SW,225,0.0,-999.0,89,-99.99,,,0.00,Acu-Link.com,2013-04-22 10:17:00,
2013-04-22 03:32:00,55.8,52.6,29.97,SW,225,1.7,-999.0,89,-99.99,,,0.00,Acu-Link.com,2013-04-22 10:32:00,
2013-04-22 03:47:00,55.6,52.4,29.97,SW,225,1.7,-999.0,89,-99.99,,,0.00,Acu-Link.com,2013-04-22 10:47:00,
2013-04-22 04:02:00,55.8,52.6,29.96,SW,225,0.0,-999.0,89,-99.99,,,0.00,Acu-Link.com,2013-04-22 11:02:00,
2013-04-22 04:18:00,55.8,52.6,29.96,SW,225,0.0,-999.0,89,-99.99,,,0.00,Acu-Link.com,2013-04-22 11:18:00,
2013-04-22 04:33:00,55.6,52.4,29.96,SW,225,0.0,-999.0,89,-99.99,,,0.00,Acu-Link.com,2013-04-22 11:33:00,
2013-04-22 04:48:00,55.4,52.2,29.96,SW,225,1.1,-999.0,89,-99.99,,,0.00,Acu-Link.com,2013-04-22 11:48:00,
2013-04-22 05:03:00,55.4,52.2,29.95,SW,225,0.0,-999.0,89,-99.99,,,0.00,Acu-Link.com,2013-04-22 12:03:00,
2013-04-22 05:18:00,55.4,52.2,29.95,SW,225,0.0,-999.0,89,-99.99,,,0.00,Acu-Link.com,2013-04-22 12:18:00,
2013-04-22 05:34:00,55.4,52.2,29.95,SW,225,0.0,-999.0,89,-99.99,,,0.00,Acu-Link.com,2013-04-22 12:34:00,
2013-04-22 06:20:00,54.9,51.7,29.96,SW,225,1.1,-999.0,89,-99.99,,,0.00,Acu-Link.com,2013-04-22 13:20:00,
2013-04-22 06:35:00,54.7,51.5,29.96,SW,225,2.7,-999.0,89,-99.99,,,0.00,Acu-Link.com,2013-04-22 13:35:00,
2013-04-22 06:50:00,54.5,51.3,29.97,SW,225,0.0,-999.0,89,-99.99,,,0.00,Acu-Link.com,2013-04-22 13:50:00,
2013-04-22 07:05:00,54.9,51.7,29.97,SW,225,0.0,-999.0,89,-99.99,,,0.00,Acu-Link.com,2013-04-22 14:05:00,
2013-04-22 07:21:00,54.9,51.7,29.98,SW,225,1.1,-999.0,89,-99.99,,,0.00,Acu-Link.com,2013-04-22 14:21:00,
2013-04-22 07:36:00,55.2,52.0,29.98,SW,225,0.0,-999.0,89,-99.99,,,0.00,Acu-Link.com,2013-04-22 14:36:00,
2013-04-22 07:51:00,55.8,52.6,29.99,SW,225,0.0,-999.0,89,-99.99,,,0.00,Acu-Link.com,2013-04-22 14:51:00,
2013-04-22 08:07:00,55.9,52.7,29.99,SW,225,0.0,-999.0,89,-99.99,,,0.00,Acu-Link.com,2013-04-22 15:07:00,
2013-04-22 08:22:00,57.0,53.5,29.99,SW,225,0.0,-999.0,88,-99.99,,,0.00,Acu-Link.com,2013-04-22 15:22:00,
2013-04-22 08:37:00,57.7,53.9,29.99,SW,225,0.0,-999.0,87,-99.99,,,0.00,Acu-Link.com,2013-04-22 15:37:00,
2013-04-22 08:52:00,57.9,53.7,29.99,SW,225,0.0,-999.0,86,-99.99,,,0.00,Acu-Link.com,2013-04-22 15:52:00,
2013-04-22 09:07:00,58.3,54.1,29.99,SW,225,0.0,-999.0,86,-99.99,,,0.00,Acu-Link.com,2013-04-22 16:07:00,
2013-04-22 09:23:00,59.7,54.5,29.99,NNE,22,2.2,-999.0,83,-99.99,,,0.00,Acu-Link.com,2013-04-22 16:23:00,
2013-04-22 09:38:00,59.2,54.0,29.99,NNE,22,0.0,-999.0,83,-99.99,,,0.00,Acu-Link.com,2013-04-22 16:38:00,
2013-04-22 09:53:00,62.1,56.5,30.00,NNE,22,1.7,-999.0,82,-99.99,,,0.00,Acu-Link.com,2013-04-22 16:53:00,
2013-04-22 10:08:00,63.1,56.5,29.99,NNE,22,2.2,-999.0,79,-99.99,,,0.00,Acu-Link.com,2013-04-22 17:08:00,
2013-04-22 10:23:00,62.8,55.8,29.99,NNE,22,2.2,-999.0,78,-99.99,,,0.00,Acu-Link.com,2013-04-22 17:23:00,
2013-04-22 10:39:00,64.8,56.7,29.98,NW,315,1.7,-999.0,75,-99.99,,,0.00,Acu-Link.com,2013-04-22 17:39:00,
2013-04-22 10:54:00,67.3,58.3,29.97,NNW,337,1.7,-999.0,73,-99.99,,,0.00,Acu-Link.com,2013-04-22 17:54:00,
2013-04-22 11:11:00,69.1,59.3,29.98,NNW,337,3.2,-999.0,71,-99.99,,,0.00,Acu-Link.com,2013-04-22 18:11:00,
2013-04-22 11:26:00,70.0,59.4,29.98,South,180,2.7,-999.0,69,-99.99,,,0.00,Acu-Link.com,2013-04-22 18:26:00,
2013-04-22 11:42:00,70.2,58.7,29.96,North,0,4.2,-999.0,67,-99.99,,,0.00,Acu-Link.com,2013-04-22 18:42:00,
2013-04-22 11:57:00,69.3,57.4,29.96,South,180,9.4,-999.0,66,-99.99,,,0.00,Acu-Link.com,2013-04-22 18:57:00,
2013-04-22 12:12:00,70.0,58.1,29.96,South,180,2.7,-999.0,66,-99.99,,,0.00,Acu-Link.com,2013-04-22 19:12:00,
2013-04-22 12:27:00,70.9,58.5,29.94,SSW,202,7.3,-999.0,65,-99.99,,,0.00,Acu-Link.com,2013-04-22 19:27:00,
2013-04-22 12:42:00,69.6,57.3,29.94,SSW,202,9.4,-999.0,65,-99.99,,,0.00,Acu-Link.com,2013-04-22 19:42:00,
2013-04-22 12:58:00,69.4,56.7,29.93,SSW,202,7.8,-999.0,64,-99.99,,,0.00,Acu-Link.com,2013-04-22 19:58:00,
2013-04-22 13:13:00,69.8,57.1,29.93,SSW,202,5.3,-999.0,64,-99.99,,,0.00,Acu-Link.com,2013-04-22 20:13:00,
2013-04-22 13:28:00,70.7,57.5,29.92,South,180,7.3,-999.0,63,-99.99,,,0.00,Acu-Link.com,2013-04-22 20:28:00,
2013-04-22 13:43:00,72.0,58.3,29.92,SSW,202,6.3,-999.0,62,-99.99,,,0.00,Acu-Link.com,2013-04-22 20:43:00,
2013-04-22 13:59:00,70.3,56.7,29.91,SSE,157,6.3,-999.0,62,-99.99,,,0.00,Acu-Link.com,2013-04-22 20:59:00,
2013-04-22 14:14:00,70.2,56.6,29.91,South,180,5.8,-999.0,62,-99.99,,,0.00,Acu-Link.com,2013-04-22 21:14:00,
2013-04-22 14:29:00,70.7,57.0,29.90,SSE,157,7.3,-999.0,62,-99.99,,,0.00,Acu-Link.com,2013-04-22 21:29:00,
2013-04-22 14:44:00,70.5,56.8,29.90,SW,225,7.8,-999.0,62,-99.99,,,0.00,Acu-Link.com,2013-04-22 21:44:00,
2013-04-22 14:59:00,70.2,56.6,29.89,South,180,7.8,-999.0,62,-99.99,,,0.00,Acu-Link.com,2013-04-22 21:59:00,
2013-04-22 15:15:00,69.1,55.5,29.89,South,180,3.2,-999.0,62,-99.99,,,0.00,Acu-Link.com,2013-04-22 22:15:00,
2013-04-22 15:30:00,69.6,56.4,29.88,SSW,202,6.8,-999.0,63,-99.99,,,0.00,Acu-Link.com,2013-04-22 22:30:00,
2013-04-22 15:45:00,69.3,56.2,29.88,WSW,247,9.9,-999.0,63,-99.99,,,0.00,Acu-Link.com,2013-04-22 22:45:00,
2013-04-22 16:00:00,68.7,55.6,29.87,SW,225,6.3,-999.0,63,-99.99,,,0.00,Acu-Link.com,2013-04-22 23:00:00,
2013-04-22 16:16:00,68.4,55.3,29.86,South,180,6.8,-999.0,63,-99.99,,,0.00,Acu-Link.com,2013-04-22 23:16:00,
2013-04-22 16:31:00,67.6,54.5,29.86,WSW,247,7.3,-999.0,63,-99.99,,,0.00,Acu-Link.com,2013-04-22 23:31:00,
2013-04-22 16:46:00,67.1,54.1,29.85,SW,225,9.9,-999.0,63,-99.99,,,0.00,Acu-Link.com,2013-04-22 23:46:00,
2013-04-22 17:01:00,66.2,53.7,29.83,WSW,247,7.3,-999.0,64,-99.99,,,0.00,Acu-Link.com,2013-04-23 00:01:00,
2013-04-22 17:17:00,65.8,53.3,29.83,SW,225,6.8,-999.0,64,-99.99,,,0.00,Acu-Link.com,2013-04-23 00:17:00,
2013-04-22 17:32:00,64.9,52.8,29.83,SSW,202,6.8,-999.0,65,-99.99,,,0.00,Acu-Link.com,2013-04-23 00:32:00,
2013-04-22 17:47:00,63.5,52.3,29.83,SSW,202,5.8,-999.0,67,-99.99,,,0.00,Acu-Link.com,2013-04-23 00:47:00,
2013-04-22 18:02:00,62.8,52.5,29.84,South,180,5.3,-999.0,69,-99.99,,,0.00,Acu-Link.com,2013-04-23 01:02:00,
2013-04-22 18:17:00,61.9,52.0,29.84,South,180,3.2,-999.0,70,-99.99,,,0.00,Acu-Link.com,2013-04-23 01:17:00,
2013-04-22 18:33:00,61.3,51.8,29.86,SSE,157,5.8,-999.0,71,-99.99,,,0.00,Acu-Link.com,2013-04-23 01:33:00,
2013-04-22 18:48:00,60.1,51.4,29.85,SSW,202,5.3,-999.0,73,-99.99,,,0.00,Acu-Link.com,2013-04-23 01:48:00,
2013-04-22 19:03:00,58.8,50.9,29.87,SSE,157,5.3,-999.0,75,-99.99,,,0.00,Acu-Link.com,2013-04-23 02:03:00,
2013-04-22 19:18:00,58.1,50.9,29.87,SSW,202,3.7,-999.0,77,-99.99,,,0.00,Acu-Link.com,2013-04-23 02:18:00,
2013-04-22 19:34:00,57.4,50.6,29.87,SSW,202,3.7,-999.0,78,-99.99,,,0.00,Acu-Link.com,2013-04-23 02:34:00,
2013-04-22 19:49:00,57.4,50.9,29.88,SSW,202,3.2,-999.0,79,-99.99,,,0.00,Acu-Link.com,2013-04-23 02:49:00,
2013-04-22 20:04:00,57.4,51.3,29.89,SW,225,4.7,-999.0,80,-99.99,,,0.00,Acu-Link.com,2013-04-23 03:04:00,
2013-04-22 20:19:00,57.4,51.3,29.89,SW,225,2.7,-999.0,80,-99.99,,,0.00,Acu-Link.com,2013-04-23 03:19:00,
2013-04-22 20:34:00,57.2,51.4,29.89,SSW,202,5.3,-999.0,81,-99.99,,,0.00,Acu-Link.com,2013-04-23 03:34:00,
2013-04-22 20:50:00,57.0,51.6,29.88,South,180,4.2,-999.0,82,-99.99,,,0.00,Acu-Link.com,2013-04-23 03:50:00,
2013-04-22 21:05:00,56.8,51.4,29.87,SSE,157,2.7,-999.0,82,-99.99,,,0.00,Acu-Link.com,2013-04-23 04:05:00,
2013-04-22 21:20:00,56.8,51.4,29.88,South,180,2.2,-999.0,82,-99.99,,,0.00,Acu-Link.com,2013-04-23 04:20:00,
2013-04-22 21:35:00,56.7,51.3,29.89,SSE,157,2.2,-999.0,82,-99.99,,,0.00,Acu-Link.com,2013-04-23 04:35:00,
2013-04-22 21:50:00,56.8,51.4,29.88,SW,225,1.1,-999.0,82,-99.99,,,0.00,Acu-Link.com,2013-04-23 04:50:00,
2013-04-22 22:06:00,56.8,51.4,29.90,SW,225,0.0,-999.0,82,-99.99,,,0.00,Acu-Link.com,2013-04-23 05:06:00,
2013-04-22 22:21:00,56.8,51.4,29.90,SW,225,0.0,-999.0,82,-99.99,,,0.00,Acu-Link.com,2013-04-23 05:21:00,
2013-04-22 22:36:00,56.8,51.4,29.90,SW,225,1.1,-999.0,82,-99.99,,,0.00,Acu-Link.com,2013-04-23 05:36:00,
2013-04-22 22:51:00,57.0,51.6,29.91,SW,225,0.0,-999.0,82,-99.99,,,0.00,Acu-Link.com,2013-04-23 05:51:00,
2013-04-22 23:06:00,57.0,51.6,29.91,SW,225,0.0,-999.0,82,-99.99,,,0.00,Acu-Link.com,2013-04-23 06:06:00,
2013-04-22 23:22:00,57.0,51.6,29.91,SW,225,2.7,-999.0,82,-99.99,,,0.00,Acu-Link.com,2013-04-23 06:22:00,
2013-04-22 23:37:00,56.7,51.3,29.91,South,180,2.7,-999.0,82,-99.99,,,0.00,Acu-Link.com,2013-04-23 06:37:00,
2013-04-22 23:52:00,56.7,51.3,29.91,SSE,157,1.7,-999.0,82,-99.99,,,0.00,Acu-Link.com,2013-04-23 06:52:00,